Terminal Aerodrome Forecast
Issued by NWS

Home | Current Version | Previous Version | Text Only | Print | Product List | Glossary On
Versions: 1 2 3 4 5 6 7 8 9 10 11 12 13 14 15 16 17 18 19 20 21 22
000
FTUS43 KDLH 192331
TAFHYR
TAF
KHYR 192331Z 2000/2024 05010KT P6SM OVC120
     FM200200 06004KT P6SM OVC120
     FM201400 08013G20KT P6SM VCSH OVC070
     FM201900 07014G21KT 6SM -SHRA SCT012 OVC020
     FM202100 07012KT 4SM RA BR SCT006 OVC012=

USA.gov is the U.S. government's official web portal to all federal, state and local government web resources and services.